Tiempo atmosférico en la estación meteorológica de Porreres, Illes Balears (120 m.)



Fecha
DESCASC
Temp. máxima en grados centígrados (hora)
DESCASC
Temp. mínima en grados centígrados (hora)
DESCASC
Temp. media en grados centígrados
DESCASC
Racha de viento máxima en m/sg (hora)
DESCASC
Velocidad máxima media en intervalos de 10 minutos(hora)
DESCASC
Precipitaciones diarias en mm
DESCASC
Precipitaciones de 00:00 a 06:00 en mm
DESCASC
Precipitaciones de 06:00 a 12:00 en mm
DESCASC
Precipitaciones de 12:00 a 18:00 en mm
DESCASC
Precipitaciones de 18:00 a 24:00 en mm
DESCASC
18-04-2019 19.3 (13:30) 13 (05:20) 16.1 10.83 (13:50) 6.11 (16:10) 0 0 0 0 0
17-04-2019 20 (14:20) 9.3 (06:40) 14.7 8.06 (16:30) 4.44 (16:40) 0 0 0 0 0
16-04-2019 22.4 (13:40) 10.1 (00:00) 16.3 6.67 (16:10) 3.33 (15:00) 0.1 0 0.1 0 0
15-04-2019 20.3 (13:40) 8.8 (00:00) 14.5 6.94 (13:00) 4.17 (15:10) 0 0 0 0 0
14-04-2019 25.1 (14:10) 8.7 (00:00) 16.9 8.33 (11:20) 5 (11:10) 0 0 0 0 0
13-04-2019 21.4 (14:00) 5.3 (00:00) 13.3 8.89 (15:00) 5.28 (16:00) 0 0 0 0 0
12-04-2019 19.5 (12:20) 8.7 (00:00) 14.1 6.39 (15:30) 4.44 (15:30) 0.5 0 0 0.5 0
11-04-2019 21.3 (16:20) 10.5 (00:00) 15.9 9.17 (17:20) 4.72 (17:00) 0.3 0 0 0 0.3
10-04-2019 19.6 (16:20) 10.1 (00:00) 14.9 11.67 (00:20) 6.11 (00:20) 5.4 0 4.1 0.6 0.7
09-04-2019 19.8 (15:20) 12.1 (00:00) 15.9 11.11 (23:00) 7.5 (23:20) 0 0 0 0 0
08-04-2019 19.9 (16:50) 5.1 (00:00) 12.5 10.28 (13:00) 5.83 (13:40) 0 0 0 0 0
07-04-2019 17.2 (14:50) 8.6 (00:00) 12.9 10.83 (14:30) 5.83 (15:30) 0.2 0 0.2 0 0
06-04-2019 15.8 (16:50) 8.7 (00:00) 12.3 12.78 (15:20) 7.5 (15:20) 1.6 1.6 0 0 0
05-04-2019 18.7 (14:20) 2.9 (00:00) 10.8 9.72 (22:00) 5 (22:10) 1.6 0 0 0.8 0.8
04-04-2019 18 (17:20) 6.5 (00:00) 12.3 8.61 (12:40) 5.28 (12:40) 0.7 0.7 0 0 0
03-04-2019 20.2 (15:20) 12.8 (00:00) 16.5 10.28 (15:30) 4.72 (15:30) 0 0 0 0 0
02-04-2019 20.4 (14:10) 7.3 (00:00) 13.8 7.5 (16:20) 4.17 (12:20) 0 0 0 0 0
01-04-2019 19.6 (14:50) 12 (00:00) 15.8 5.83 (17:50) 3.61 (17:40) 0 0 0 0 0
31-03-2019 17.1 (13:00) 10.8 (00:00) 14 8.06 (13:30) 4.72 (14:20) 1 0 0 0 1
30-03-2019 18.5 (13:50) 8.4 (00:00) 13.4 6.67 (14:00) 3.89 (14:00) 0 0 0 0 0
29-03-2019 19 (14:10) 5.3 (00:00) 12.2 6.94 (12:20) 3.89 (12:00) 0 0 0 0 0
28-03-2019 19.5 (13:20) 6 (00:00) 12.8 9.17 (14:10) 3.89 (13:20) 0 0 0 0 0
27-03-2019 17.7 (13:50) 4.5 (00:00) 11.1 9.17 (13:50) 4.72 (09:00) 0 0 0 0 0
26-03-2019 16.2 (12:10) 6.3 (00:00) 11.3 13.06 (13:00) 5.83 (09:40) 0 0 0 0 0
25-03-2019 21.6 (15:00) 5.8 (00:00) 13.7 8.89 (12:50) 3.33 (12:50) 0 0 0 0 0
24-03-2019 22.6 (13:50) 5.5 (00:00) 14.1 7.22 (16:00) 3.61 (15:30) 0 0 0 0 0
23-03-2019 22.5 (15:40) 8.9 (00:00) 15.7 6.94 (13:00) 3.33 (08:50) 0 0 0 0 0
22-03-2019 19.3 (13:50) 10.2 (00:00) 14.7 9.44 (10:50) 5 (13:10) 0 0 0 0 0
21-03-2019 15.6 (12:30) 7.6 (00:00) 11.6 10.28 (14:10) 3.89 (11:40) 0 0 0 0 0

Gráficas

Temp. máximas Temp. mínimas Temp. medias Precipitaciones Rachas de viento máximas Velocidades máximas media en intervalos de 10 minutos

Datos horarios

Fecha y hora oficial Temperatura (ºC) Velocidad del viento (km/h) Dirección del viento Racha (km/h) Dirección de racha Precipitación (mm) Presión (hPa) Tendencia (hPa) Humedad (%)
2019-04-19 23:00:00 15.3 10 Este 31 Este 0 -- -- 69
2019-04-19 22:00:00 15.2 8 Este 28 Nordeste 0 -- -- 74
2019-04-19 21:00:00 15 8 Este 33 Nordeste 0 -- -- 79
2019-04-19 20:00:00 15 12 Este 30 Este 0 -- -- 82
2019-04-19 19:00:00 15.2 10 Este 35 Este 0 -- -- 82
2019-04-19 18:00:00 15.2 13 Este 37 Nordeste 0 -- -- 83
2019-04-19 17:00:00 14.9 11 Este 39 Este 0 -- -- 82
2019-04-19 16:00:00 15 15 Este 43 Este 0 -- -- 83
2019-04-19 15:00:00 15.3 14 Este 37 Este 0 -- -- 83
2019-04-19 14:00:00 15 12 Este 33 Sudeste 0 -- -- 84
2019-04-19 13:00:00 14.7 10 Este 28 Nordeste 0 -- -- 86
2019-04-19 12:00:00 14.1 10 Este 29 Nordeste 0 -- -- 90
2019-04-19 11:00:00 13.9 12 Este 30 Este 0 -- -- 93
2019-04-19 10:00:00 14 12 Este 26 Este 0 -- -- 93
2019-04-19 09:00:00 14 11 Este 26 Este 0 -- -- 94
2019-04-19 08:00:00 14 10 Este 23 Este 0.1 -- -- 94
2019-04-19 07:00:00 14 9 Este 21 Este 0.1 -- -- 94
2019-04-19 06:00:00 14.2 8 Este 18 Este 0.2 -- -- 93
2019-04-19 05:00:00 14.4 5 Este 15 Nordeste 0.1 -- -- 92
2019-04-19 04:00:00 14.6 6 Este 22 Este 0 -- -- 89
2019-04-19 03:00:00 14.8 11 Este 27 Este 0 -- -- 84
2019-04-19 02:00:00 15.2 12 Este 23 Este 0 -- -- 82
2019-04-19 01:00:00 15.2 12 Este 26 Sudeste 0 -- -- 80
2019-04-19 00:00:00 15.2 13 Este 26 Este 0 -- -- 78
2019-04-18 23:00:00 15.1 14 Este 27 Este 0 -- -- 77
2019-04-18 22:00:00 15.1 17 Este 32 Sudeste 0 -- -- 78
2019-04-18 21:00:00 15.2 15 Este 32 Este 0 -- -- 76
2019-04-18 20:00:00 15.4 14 Este 28 Este 0 -- -- 75
2019-04-18 19:00:00 15.8 16 Sudeste 36 Este 0 -- -- 72
2019-04-18 18:00:00 16.2 18 Este 36 Este 0 -- -- 70
2019-04-18 17:00:00 16.8 19 Este 36 Nordeste 0 -- -- 69
2019-04-18 16:00:00 16.9 17 Este 35 Este 0 -- -- 67
2019-04-18 15:00:00 18 17 Sudeste 36 Este 0 -- -- 65
2019-04-18 14:00:00 18.9 20 Este 39 Este 0 -- -- 62
2019-04-18 13:00:00 18.5 14 Este 32 Este 0 -- -- 64
2019-04-18 12:00:00 17.6 11 Este 29 Este 0 -- -- 68
2019-04-18 11:00:00 17.4 12 Este 28 Este 0 -- -- 69
2019-04-18 10:00:00 15.9 5 Este 30 Nordeste 0 -- -- 79
2019-04-18 09:00:00 14.5 8 Este 25 Este 0 -- -- 85
2019-04-18 08:00:00 14 6 Nordeste 15 Este 0 -- -- 87
2019-04-18 07:00:00 13.7 3 Nordeste 21 Nordeste 0 -- -- 88
2019-04-18 06:00:00 13.2 3 Nordeste 16 Este 0 -- -- 88
2019-04-18 05:00:00 13.1 3 Nordeste 19 Nordeste 0 -- -- 89
2019-04-18 04:00:00 13.4 4 Nordeste 15 Nordeste 0 -- -- 89
2019-04-18 03:00:00 13.5 0 Calma 12 Nordeste 0 -- -- 88
2019-04-18 02:00:00 13.6 5 Nordeste 17 Nordeste 0 -- -- 87
2019-04-18 01:00:00 13.6 3 Nordeste 15 Este 0 -- -- 86
2019-04-18 00:00:00 13.5 4 Nordeste 12 Norte 0 -- -- 84
2019-04-17 23:00:00 13.6 0 Calma 13 Este 0 -- -- 83
2019-04-17 22:00:00 13.6 3 Nordeste 12 Nordeste 0 -- -- 82
2019-04-17 21:00:00 14.1 0 Calma 19 Este 0 -- -- 77
2019-04-17 20:00:00 15 10 Este 21 Este 0 -- -- 70
2019-04-17 19:00:00 16.3 11 Este 24 Sudeste 0 -- -- 64
2019-04-17 18:00:00 17.3 14 Sudeste 27 Este 0 -- -- 61
2019-04-17 17:00:00 18.1 15 Sudeste 29 Sudeste 0 -- -- 55
2019-04-17 16:00:00 19.1 15 Sudeste 26 Sudeste 0 -- -- 52
2019-04-17 15:00:00 19.3 13 Este 22 Sudeste 0 -- -- 50
2019-04-17 14:00:00 19.7 8 Este 21 Sudeste 0 -- -- 51
2019-04-17 13:00:00 19.3 8 Este 23 Sudeste 0 -- -- 54
2019-04-17 12:00:00 18.6 9 Este 23 Este 0 -- -- 58
2019-04-17 11:00:00 16.8 9 Este 18 Este 0 -- -- 64
2019-04-17 10:00:00 15.5 8 Sudeste 15 Sudeste 0 -- -- 75
2019-04-17 09:00:00 13.4 3 Norte 8 Norte 0 -- -- 92
2019-04-17 08:00:00 10.1 0 Calma 6 Noroeste 0 -- -- 91
2019-04-17 07:00:00 9.5 4 Norte 11 Noroeste 0 -- -- 91
2019-04-17 06:00:00 9.9 7 Norte 13 Noroeste 0 -- -- 90
2019-04-17 05:00:00 10.6 5 Norte 9 Noroeste 0 -- -- 88
2019-04-17 04:00:00 10.1 0 Calma -- -- 0 -- -- 86
2019-04-17 03:00:00 10 0 Calma -- -- 0 -- -- 84
2019-04-17 02:00:00 10.7 0 Calma 4 Noroeste 0 -- -- 82
2019-04-17 01:00:00 11.2 0 Calma 8 Norte 0 -- -- 83
2019-04-17 00:00:00 13 6 Norte 11 Norte 0 -- -- 83
2019-04-16 23:00:00 12.9 5 Norte 8 Norte 0 -- -- 81
2019-04-16 22:00:00 13.9 5 Norte 8 Norte 0 -- -- 76
2019-04-16 21:00:00 15 3 Nordeste 11 Norte 0 -- -- 69
2019-04-16 20:00:00 16.5 3 Nordeste 17 Norte 0 -- -- 63
2019-04-16 19:00:00 17.5 6 Nordeste 17 Norte 0 -- -- 53
2019-04-16 18:00:00 18.4 3 Norte 17 Sur 0 -- -- 51
2019-04-16 17:00:00 19.2 8 Sudeste 24 Sudeste 0 -- -- 50
2019-04-16 16:00:00 21.2 6 Sur 24 Sudeste 0 -- -- 45
2019-04-16 15:00:00 20.8 12 Sur 22 Sudeste 0 -- -- 44
2019-04-16 14:00:00 22.4 7 Sudeste 16 Este 0 -- -- 37
2019-04-16 13:00:00 21.2 6 Sudeste 14 Este 0 -- -- 37
2019-04-16 12:00:00 20.2 4 Este 12 Sudeste 0 -- -- 40
2019-04-16 11:00:00 18.4 2 Sudeste 9 Sudeste 0 -- -- 49
2019-04-16 10:00:00 15.5 5 Sudeste 10 Sudeste 0 -- -- 71
2019-04-16 09:00:00 13.4 2 Noroeste 13 Noroeste 0 -- -- 89
2019-04-16 08:00:00 11.9 4 Noroeste 19 Noroeste 0.1 -- -- 89
2019-04-16 07:00:00 11.8 5 Oeste 14 Norte 0 -- -- 87
2019-04-16 06:00:00 11.6 0 Calma 7 Oeste 0 -- -- 86
2019-04-16 05:00:00 10.5 0 Calma 14 Noroeste 0 -- -- 84
2019-04-16 04:00:00 10.2 5 Noroeste 15 Noroeste 0 -- -- 83
2019-04-16 03:00:00 10.3 6 Norte 13 Norte 0 -- -- 81
2019-04-16 02:00:00 10.4 6 Noroeste 9 Noroeste 0 -- -- 78
2019-04-16 01:00:00 11.3 3 Noroeste 6 Noroeste 0 -- -- 77
2019-04-16 00:00:00 10.8 0 Calma -- -- 0 -- -- 71
2019-04-15 23:00:00 12.7 0 Calma 6 Este 0 -- -- 68
2019-04-15 22:00:00 13.1 2 Este 10 Este 0 -- -- 65
2019-04-15 21:00:00 14.2 6 Sudeste 15 Este 0 -- -- 56
2019-04-15 20:00:00 15.2 9 Sudeste 15 Sudeste 0 -- -- 43
2019-04-15 19:00:00 16.7 9 Sudeste 18 Sudeste 0 -- -- 34
2019-04-15 18:00:00 18.1 12 Sudeste 21 Este 0 -- -- 35
2019-04-15 17:00:00 18.6 13 Este 23 Sudeste 0 -- -- 34
2019-04-15 16:00:00 18.7 13 Sudeste 24 Sudeste 0 -- -- 33
2019-04-15 15:00:00 19.5 13 Sudeste 25 Sudeste 0 -- -- 33
2019-04-15 14:00:00 20 12 Sudeste 23 Sudeste 0 -- -- 34
2019-04-15 13:00:00 18.9 11 Este 25 Sudeste 0 -- -- 39
2019-04-15 12:00:00 19.1 13 Sudeste 21 Este 0 -- -- 39
2019-04-15 11:00:00 17.9 14 Sudeste 19 Sudeste 0 -- -- 42
2019-04-15 10:00:00 16.6 8 Sudeste 15 Sudeste 0 -- -- 55
2019-04-15 09:00:00 14.1 0 Calma -- -- 0 -- -- 79
2019-04-15 08:00:00 9.7 0 Calma -- -- 0 -- -- 85
2019-04-15 07:00:00 9 0 Calma -- -- 0 -- -- 84
2019-04-15 06:00:00 9.9 0 Calma 6 Noroeste 0 -- -- 84
2019-04-15 05:00:00 10.6 0 Calma 7 Noroeste 0 -- -- 83
2019-04-15 04:00:00 11.1 3 Norte 6 Noroeste 0 -- -- 82
2019-04-15 03:00:00 11.3 0 Calma -- -- 0 -- -- 81
2019-04-15 02:00:00 12.3 0 Calma 4 Nordeste 0 -- -- 80
2019-04-15 01:00:00 12.8 0 Calma 6 Sudeste 0 -- -- 80
2019-04-15 00:00:00 12.8 0 Calma -- -- 0 -- -- 78
2019-04-14 23:00:00 13.8 0 Calma 5 Este 0 -- -- 77
2019-04-14 22:00:00 14.5 0 Calma 6 Este 0 -- -- 76
2019-04-14 21:00:00 15.9 4 Este 10 Este 0 -- -- 71
2019-04-14 20:00:00 18 4 Sur 20 Sudeste 0 -- -- 57
2019-04-14 19:00:00 19.3 11 Sur 22 Sudeste 0 -- -- 46
2019-04-14 18:00:00 20.5 12 Sudeste 28 Este 0 -- -- 48
2019-04-14 17:00:00 24 12 Noroeste 29 Noroeste 0 -- -- 24
2019-04-14 16:00:00 24.2 15 Noroeste 25 Norte 0 -- -- 23
2019-04-14 15:00:00 24.1 10 Norte 23 Oeste 0 -- -- 24
2019-04-14 14:00:00 24.6 10 Noroeste 25 Norte 0 -- -- 23
2019-04-14 13:00:00 23.6 12 Noroeste 23 Noroeste 0 -- -- 33
2019-04-14 12:00:00 21.2 13 Sudoeste 30 Oeste 0 -- -- 50
2019-04-14 11:00:00 17.8 18 Oeste 29 Oeste 0 -- -- 69
2019-04-14 10:00:00 15.1 12 Oeste 24 Oeste 0 -- -- 86
2019-04-14 09:00:00 14.3 5 Sudoeste 19 Sudoeste 0 -- -- 92
2019-04-14 08:00:00 12.3 0 Calma 9 Sudoeste 0 -- -- 91
2019-04-14 07:00:00 9.8 0 Calma -- -- 0 -- -- 91
2019-04-14 06:00:00 8.8 0 Calma -- -- 0 -- -- 90
2019-04-14 05:00:00 10.3 0 Calma 6 Este 0 -- -- 90
2019-04-14 04:00:00 11.4 3 Sudeste 6 Sudeste 0 -- -- 89
2019-04-14 03:00:00 13.1 2 Oeste 12 Noroeste 0 -- -- 89
2019-04-14 02:00:00 13 0 Calma 11 Oeste 0 -- -- 88
2019-04-14 01:00:00 13.3 0 Calma 11 Sudoeste 0 -- -- 88
2019-04-14 00:00:00 13.3 5 Sudoeste 22 Sudoeste 0 -- -- 88
2019-04-13 23:00:00 13.7 10 Sudoeste 23 Oeste 0 -- -- 87
2019-04-13 22:00:00 14.1 10 Oeste 22 Oeste 0 -- -- 75
2019-04-13 21:00:00 14.8 12 Oeste 26 Oeste 0 -- -- 69
2019-04-13 20:00:00 16 16 Oeste 29 Sudoeste 0 -- -- 62
2019-04-13 19:00:00 18.1 18 Oeste 29 Sudoeste 0 -- -- 48
2019-04-13 18:00:00 19.5 17 Oeste 30 Oeste 0 -- -- 43
2019-04-13 17:00:00 19.8 18 Oeste 31 Oeste 0 -- -- 43
2019-04-13 16:00:00 20.3 19 Oeste 32 Oeste 0 -- -- 41
2019-04-13 15:00:00 20.5 18 Oeste 32 Oeste 0 -- -- 40
2019-04-13 14:00:00 21.3 12 Sudoeste 24 Sudoeste 0 -- -- 36
2019-04-13 13:00:00 20.7 9 Oeste 22 Noroeste 0 -- -- 38
2019-04-13 12:00:00 20.2 9 Sudoeste 21 Oeste 0 -- -- 39
2019-04-13 11:00:00 19 5 Sur 13 Sudeste 0 -- -- 36
2019-04-13 10:00:00 16 6 Oeste 10 Oeste 0 -- -- 67
2019-04-13 09:00:00 11.5 0 Calma -- -- 0 -- -- 86
2019-04-13 08:00:00 6.3 0 Calma -- -- 0 -- -- 89
2019-04-13 07:00:00 5.6 0 Calma -- -- 0 -- -- 88
2019-04-13 06:00:00 6.2 0 Calma -- -- 0 -- -- 88
2019-04-13 05:00:00 6.5 0 Calma -- -- 0 -- -- 87
2019-04-13 04:00:00 7 0 Calma 0 Calma 0 -- -- 87
2019-04-13 03:00:00 7.4 0 Calma 3 Nordeste 0 -- -- 86
2019-04-13 02:00:00 7.5 0 Calma -- -- 0 -- -- 85
2019-04-13 01:00:00 8.3 0 Calma 0 Calma 0 -- -- 82
2019-04-13 00:00:00 8.7 0 Calma -- -- 0 -- -- 79
2019-04-12 23:00:00 10.4 0 Calma 4 Norte 0 -- -- 72
2019-04-12 22:00:00 12.4 2 Sudoeste 10 Sudeste 0 -- -- 65
2019-04-12 21:00:00 13.5 4 Sur 14 Sudoeste 0 -- -- 59
2019-04-12 20:00:00 14.9 8 Sudoeste 17 Sudoeste 0 -- -- 55
2019-04-12 19:00:00 16.7 9 Sudoeste 21 Sur 0 -- -- 49
2019-04-12 18:00:00 16.8 8 Sudoeste 22 Sudoeste 0 -- -- 49
2019-04-12 17:00:00 16.7 8 Sudoeste 21 Sudoeste 0 -- -- 51
2019-04-12 16:00:00 15.6 11 Sudeste 23 Sudeste 0 -- -- 62
2019-04-12 15:00:00 16 10 Sur 17 Sur 0.5 -- -- 66
2019-04-12 14:00:00 16.1 10 Sudeste 18 Sudeste 0 -- -- 52
2019-04-12 13:00:00 18.7 4 Sur 13 Norte 0 -- -- 43
2019-04-12 12:00:00 18.1 8 Norte 19 Norte 0 -- -- 44
2019-04-12 11:00:00 16.7 4 Nordeste 14 Nordeste 0 -- -- 52
2019-04-12 10:00:00 14.7 3 Nordeste 17 Nordeste 0 -- -- 59
2019-04-12 09:00:00 14 3 Norte 13 Norte 0 -- -- 73
2019-04-12 08:00:00 12.5 3 Noroeste 10 Norte 0 -- -- 76
2019-04-12 07:00:00 11.4 0 Calma 6 Noroeste 0 -- -- 82
2019-04-12 06:00:00 12.2 0 Calma 3 Sudoeste 0 -- -- 82
2019-04-12 05:00:00 11.4 0 Calma 4 Noroeste 0 -- -- 80
2019-04-12 04:00:00 12.3 3 Noroeste 10 Noroeste 0 -- -- 78
2019-04-12 03:00:00 12.3 4 Noroeste 13 Oeste 0 -- -- 77
2019-04-12 02:00:00 11.6 4 Oeste 14 Oeste 0 -- -- 77
2019-04-12 01:00:00 11.5 9 Oeste 17 Sudoeste 0 -- -- 75
2019-04-12 00:00:00 12.6 5 Oeste 18 Norte 0.3 -- -- 72
2019-04-11 23:00:00 11.2 0 Calma 7 Sudeste 0 -- -- 67
2019-04-11 22:00:00 13.4 0 Calma 9 Noroeste 0 -- -- 59
2019-04-11 21:00:00 14.4 2 Sudeste 16 Oeste 0 -- -- 53
2019-04-11 20:00:00 16.7 8 Noroeste 20 Oeste 0 -- -- 34
2019-04-11 19:00:00 18.8 11 Noroeste 24 Noroeste 0 -- -- 32
2019-04-11 18:00:00 19.9 14 Noroeste 33 Norte 0 -- -- 32
2019-04-11 17:00:00 20.8 17 Oeste 31 Oeste 0 -- -- 33
2019-04-11 16:00:00 20.4 15 Noroeste 31 Noroeste 0 -- -- 33
2019-04-11 15:00:00 19.8 15 Noroeste 29 Norte 0 -- -- 33
2019-04-11 14:00:00 19.9 14 Oeste 27 Oeste 0 -- -- 37
2019-04-11 13:00:00 18.8 8 Oeste 23 Oeste 0 -- -- 46
2019-04-11 12:00:00 18 11 Sudeste 16 Sudeste 0 -- -- 44
2019-04-11 11:00:00 17 7 Sudeste 11 Sur 0 -- -- 55
2019-04-11 10:00:00 14.3 4 Norte 6 Noroeste 0 -- -- 66
2019-04-11 09:00:00 11.7 0 Calma 3 Norte 0 -- -- 71
2019-04-11 08:00:00 11.1 0 Calma 10 Noroeste 0 -- -- 68
2019-04-11 07:00:00 10.6 5 Noroeste 12 Noroeste 0 -- -- 67
2019-04-11 06:00:00 11.6 8 Noroeste 13 Noroeste 0 -- -- 61
2019-04-11 05:00:00 11.6 8 Noroeste 13 Noroeste 0 -- -- 62
2019-04-11 04:00:00 11.5 8 Noroeste 12 Noroeste 0 -- -- 64
2019-04-11 03:00:00 11.6 8 Noroeste 15 Noroeste 0 -- -- 65
2019-04-11 02:00:00 10.7 0 Calma 6 Noroeste 0 -- -- 82
2019-04-11 01:00:00 10.6 0 Calma 5 Noroeste 0 -- -- 82
2019-04-11 00:00:00 10.9 0 Calma -- -- 0 -- -- 82
2019-04-10 23:00:00 10.8 0 Calma 5 Noroeste 0 -- -- 80
2019-04-10 22:00:00 11.9 3 Norte 6 Noroeste 0 -- -- 79
2019-04-10 21:00:00 12.8 0 Calma -- -- 0 -- -- 75
2019-04-10 20:00:00 14 0 Calma 15 Sur 0 -- -- 72
2019-04-10 19:00:00 13.4 10 Sudeste 25 Sudeste 0.7 -- -- 74
2019-04-10 18:00:00 14.3 11 Sudeste 21 Este 0.6 -- -- 66
2019-04-10 17:00:00 19 10 Noroeste 28 Noroeste 0 -- -- 37
2019-04-10 16:00:00 18.9 9 Oeste 27 Noroeste 0 -- -- 43
2019-04-10 15:00:00 17.9 14 Noroeste 27 Noroeste 0 -- -- 44
2019-04-10 14:00:00 17.7 14 Noroeste 28 Noroeste 0 -- -- 48
2019-04-10 13:00:00 15.7 13 Noroeste 28 Oeste 0 -- -- 58
2019-04-10 12:00:00 15.3 14 Noroeste 26 Oeste 0 -- -- 63
2019-04-10 11:00:00 13.5 9 Noroeste 19 Noroeste 0.1 -- -- 78
2019-04-10 10:00:00 11.2 9 Oeste 14 Oeste 0.6 -- -- 85
2019-04-10 09:00:00 10.2 8 Oeste 20 Noroeste 2.4 -- -- 83
2019-04-10 08:00:00 10.9 13 Noroeste 21 Noroeste 0.8 -- -- 79
2019-04-10 07:00:00 12.2 11 Noroeste 21 Norte 0.2 -- -- 75
2019-04-10 06:00:00 11.5 0 Calma 12 Oeste 0 -- -- 79
2019-04-10 05:00:00 12.2 10 Oeste 19 Oeste 0 -- -- 76
2019-04-10 04:00:00 12.8 12 Oeste 29 Oeste 0 -- -- 70
2019-04-10 03:00:00 13.2 19 Oeste 31 Oeste 0 -- -- 68
2019-04-10 02:00:00 13.6 19 Oeste 38 Oeste 0 -- -- 67
2019-04-10 01:00:00 13.5 18 Oeste 42 Oeste 0 -- -- 65
2019-04-10 00:00:00 13.7 22 Oeste 40 Oeste 0 -- -- 64
2019-04-09 23:00:00 13.7 20 Oeste 40 Oeste 0 -- -- 66
2019-04-09 22:00:00 13.5 11 Oeste 22 Oeste 0 -- -- 63
2019-04-09 21:00:00 13.7 11 Oeste 22 Oeste 0 -- -- 51
2019-04-09 20:00:00 15.5 16 Oeste 31 Oeste 0 -- -- 42
2019-04-09 19:00:00 17 19 Oeste 33 Oeste 0 -- -- 40
2019-04-09 18:00:00 17.5 23 Oeste 36 Oeste 0 -- -- 43
2019-04-09 17:00:00 17.9 22 Oeste 37 Oeste 0 -- -- 44
2019-04-09 16:00:00 19.1 14 Oeste 33 Oeste 0 -- -- 37
2019-04-09 15:00:00 19.1 15 Noroeste 34 Oeste 0 -- -- 40
2019-04-09 14:00:00 18.2 15 Noroeste 33 Oeste 0 -- -- 45
2019-04-09 13:00:00 18.4 14 Noroeste 30 Noroeste 0 -- -- 44
2019-04-09 12:00:00 19.1 14 Noroeste 32 Noroeste 0 -- -- 45
2019-04-09 11:00:00 17.4 8 Noroeste 26 Oeste 0 -- -- 58
2019-04-09 10:00:00 16.4 18 Oeste 31 Oeste 0 -- -- 66
2019-04-09 09:00:00 14 13 Oeste 26 Sudoeste 0 -- -- 82
2019-04-09 08:00:00 13.1 11 Sudoeste 26 Sudoeste 0 -- -- 91
2019-04-09 07:00:00 13.8 14 Sudoeste 27 Sudoeste 0 -- -- 92
2019-04-09 06:00:00 13.7 0 Calma -- -- 0 -- -- 91
2019-04-09 05:00:00 13.4 0 Calma 9 Sudoeste 0 -- -- 91
2019-04-09 04:00:00 13.5 4 Sur 9 Sur 0 -- -- 90
2019-04-09 03:00:00 12.5 0 Calma 6 Nordeste 0 -- -- 86
2019-04-09 02:00:00 13.5 2 Oeste 8 Sudoeste 0 -- -- 83
2019-04-09 01:00:00 13.3 0 Calma 9 Noroeste 0 -- -- 80
2019-04-09 00:00:00 14.1 3 Norte 8 Norte 0 -- -- 79
2019-04-08 23:00:00 14.1 0 Calma 9 Sudoeste 0 -- -- 76
2019-04-08 22:00:00 14.5 5 Oeste 20 Oeste 0 -- -- 72
2019-04-08 21:00:00 15.1 12 Oeste 25 Oeste 0 -- -- 66
2019-04-08 20:00:00 16 17 Oeste 27 Oeste 0 -- -- 57
2019-04-08 19:00:00 18.3 14 Oeste 31 Oeste 0 -- -- 52
2019-04-08 18:00:00 18.8 17 Oeste 30 Oeste 0 -- -- 50
2019-04-08 17:00:00 19.5 16 Oeste 32 Oeste 0 -- -- 50
2019-04-08 16:00:00 19 17 Oeste 31 Oeste 0 -- -- 50
2019-04-08 15:00:00 19.2 17 Oeste 37 Oeste 0 -- -- 46
2019-04-08 14:00:00 18.1 20 Oeste 37 Oeste 0 -- -- 47
2019-04-08 13:00:00 17.6 20 Oeste 37 Oeste 0 -- -- 51
2019-04-08 12:00:00 17.1 14 Oeste 30 Oeste 0 -- -- 49
2019-04-08 11:00:00 17.2 12 Sudoeste 23 Sudoeste 0 -- -- 55
2019-04-08 10:00:00 14.8 9 Sudoeste 21 Sudoeste 0 -- -- 86
2019-04-08 09:00:00 12.6 2 Sudoeste 10 Oeste 0 -- -- 90
2019-04-08 08:00:00 8 0 Calma -- -- 0 -- -- 88
2019-04-08 07:00:00 6 0 Calma 3 Sudoeste 0 -- -- 86
2019-04-08 06:00:00 5.4 0 Calma 4 Oeste 0 -- -- 85
2019-04-08 05:00:00 5.8 0 Calma -- -- 0 -- -- 82
2019-04-08 04:00:00 6 0 Calma 4 Oeste 0 -- -- 81
2019-04-08 03:00:00 6.1 0 Calma 5 Oeste 0 -- -- 78
2019-04-08 02:00:00 6.4 0 Calma 9 Oeste 0 -- -- 75
2019-04-08 01:00:00 7.4 0 Calma 5 Oeste 0 -- -- 70
2019-04-08 00:00:00 9.1 4 Oeste 8 Oeste 0 -- -- 68
2019-04-07 23:00:00 9.4 0 Calma 8 Oeste 0 -- -- 65
2019-04-07 22:00:00 11.3 4 Noroeste 12 Noroeste 0 -- -- 60
2019-04-07 21:00:00 11 0 Calma 8 Noroeste 0 -- -- 55
2019-04-07 20:00:00 13.4 5 Noroeste 24 Noroeste 0 -- -- 48
2019-04-07 19:00:00 14.8 15 Noroeste 26 Noroeste 0 -- -- 44
2019-04-07 18:00:00 15.8 17 Noroeste 35 Noroeste 0 -- -- 44
2019-04-07 17:00:00 15.7 17 Noroeste 31 Noroeste 0 -- -- 45
2019-04-07 16:00:00 14.8 18 Noroeste 36 Norte 0 -- -- 45
2019-04-07 15:00:00 15.5 17 Noroeste 39 Noroeste 0 -- -- 42
2019-04-07 14:00:00 15.9 20 Noroeste 36 Noroeste 0 -- -- 45
2019-04-07 13:00:00 15.7 15 Noroeste 34 Noroeste 0 -- -- 46
2019-04-07 12:00:00 15.1 16 Noroeste 26 Norte 0 -- -- 51
2019-04-07 11:00:00 14 10 Noroeste 23 Oeste 0.1 -- -- 57
2019-04-07 10:00:00 11.8 13 Noroeste 26 Noroeste 0 -- -- 66
2019-04-07 09:00:00 10.3 9 Oeste 24 Norte 0.1 -- -- 76
2019-04-07 08:00:00 10.5 13 Noroeste 31 Noroeste 0 -- -- 69
2019-04-07 07:00:00 10.9 10 Oeste 21 Oeste 0 -- -- 72
2019-04-07 06:00:00 11.1 11 Oeste 22 Oeste 0 -- -- 70
2019-04-07 05:00:00 11.7 12 Oeste 24 Oeste 0 -- -- 68
2019-04-07 04:00:00 11.5 10 Oeste 22 Oeste 0 -- -- 70
2019-04-07 03:00:00 10.8 8 Oeste 15 Oeste 0 -- -- 78
2019-04-07 02:00:00 8.9 5 Oeste 7 Sudoeste 0 -- -- 79
2019-04-07 01:00:00 9.8 4 Oeste 9 Sudoeste 0 -- -- 77
2019-04-07 00:00:00 8.7 2 Oeste 7 Oeste 0 -- -- 72
2019-04-06 23:00:00 10.1 0 Calma 4 Oeste 0 -- -- 67
2019-04-06 22:00:00 11.4 3 Oeste 14 Sudoeste 0 -- -- 62
2019-04-06 21:00:00 12.9 7 Sudoeste 22 Sudoeste 0 -- -- 57
2019-04-06 20:00:00 13.8 7 Sudoeste 31 Oeste 0 -- -- 55
2019-04-06 19:00:00 14.1 21 Oeste 38 Oeste 0 -- -- 52
2019-04-06 18:00:00 14.8 23 Oeste 39 Oeste 0 -- -- 47
2019-04-06 17:00:00 15.3 20 Oeste 39 Oeste 0 -- -- 45
2019-04-06 16:00:00 14.7 23 Oeste 46 Oeste 0 -- -- 48
2019-04-06 15:00:00 15.1 23 Oeste 41 Oeste 0 -- -- 47
2019-04-06 14:00:00 15.2 22 Oeste 37 Oeste 0 -- -- 50
2019-04-06 13:00:00 15.2 22 Oeste 42 Oeste 0 -- -- 53
2019-04-06 12:00:00 14 23 Oeste 42 Oeste 0 -- -- 56
2019-04-06 11:00:00 13.3 19 Oeste 37 Sudoeste 0 -- -- 60
2019-04-06 10:00:00 12.9 16 Oeste 34 Sudoeste 0 -- -- 64
2019-04-06 09:00:00 11.4 12 Oeste 32 Oeste 0 -- -- 66
2019-04-06 08:00:00 10.9 17 Oeste 37 Oeste 0 -- -- 69
2019-04-06 07:00:00 10.4 18 Oeste 31 Oeste 0 -- -- 74
2019-04-06 06:00:00 9.2 7 Oeste 16 Sudoeste 0 -- -- 85
2019-04-06 05:00:00 9.7 8 Sudoeste 15 Sudoeste 0 -- -- 86
2019-04-06 04:00:00 10.5 4 Oeste 26 Oeste 0.3 -- -- 86
2019-04-06 03:00:00 11.4 7 Sudoeste 17 Sudoeste 1.3 -- -- 86
2019-04-06 02:00:00 11.5 10 Sudoeste 19 Oeste 0 -- -- 86
2019-04-06 01:00:00 11.3 5 Oeste 13 Sudoeste 0 -- -- 85
2019-04-06 00:00:00 12.6 8 Sudoeste 22 Sudoeste 0.7 -- -- 83
2019-04-05 23:00:00 13.8 12 Sudoeste 33 Sudoeste 0 -- -- 76
2019-04-05 22:00:00 14.1 17 Sudoeste 35 Sudoeste 0 -- -- 78
2019-04-05 21:00:00 14.1 14 Sudoeste 29 Sur 0 -- -- 77
2019-04-05 20:00:00 13.9 9 Sur 28 Sur 0 -- -- 77
2019-04-05 19:00:00 14.2 14 Sur 30 Sur 0.1 -- -- 74
2019-04-05 18:00:00 14.3 13 Sur 34 Sudeste 0.8 -- -- 77
2019-04-05 17:00:00 15.2 15 Sur 29 Sudeste 0 -- -- 63
2019-04-05 16:00:00 15.6 14 Sur 33 Sudoeste 0 -- -- 56
2019-04-05 15:00:00 17.3 14 Sudoeste 29 Sudoeste 0 -- -- 47
2019-04-05 14:00:00 18.3 15 Sudoeste 28 Sudoeste 0 -- -- 44
2019-04-05 13:00:00 18.2 12 Sur 29 Sudoeste 0 -- -- 39
2019-04-05 12:00:00 16.8 13 Sudoeste 25 Sur 0 -- -- 39
2019-04-05 11:00:00 16.2 12 Sudoeste 25 Sudoeste 0 -- -- 44
2019-04-05 10:00:00 14.5 9 Sudoeste 18 Sudoeste 0 -- -- 55
2019-04-05 09:00:00 8.7 0 Calma -- -- 0 -- -- 83
2019-04-05 08:00:00 3.1 0 Calma -- -- 0 -- -- 85
2019-04-05 07:00:00 3.2 0 Calma -- -- 0 -- -- 83
2019-04-05 06:00:00 3.9 0 Calma -- -- 0 -- -- 83
2019-04-05 05:00:00 4.2 0 Calma 6 Noroeste 0 -- -- 82
2019-04-05 04:00:00 4.7 0 Calma 4 Noroeste 0 -- -- 82
2019-04-05 03:00:00 4.5 0 Calma 5 Norte 0 -- -- 81
2019-04-05 02:00:00 4.9 0 Calma -- -- 0 -- -- 79
2019-04-05 01:00:00 5.7 0 Calma -- -- 0 -- -- 77
2019-04-05 00:00:00 6.5 0 Calma -- -- 0 -- -- 73
2019-04-04 23:00:00 7.4 0 Calma 3 Norte 0 -- -- 68
2019-04-04 22:00:00 9.4 0 Calma 6 Sudeste 0 -- -- 63
2019-04-04 21:00:00 10.9 4 Sudeste 13 Sudeste 0 -- -- 59
2019-04-04 20:00:00 12.4 9 Sudeste 19 Este 0 -- -- 52
2019-04-04 19:00:00 14.4 15 Sudeste 23 Este 0 -- -- 41
2019-04-04 18:00:00 17.1 11 Noroeste 21 Norte 0 -- -- 22
2019-04-04 17:00:00 17.6 10 Norte 24 Norte 0 -- -- 23
2019-04-04 16:00:00 16.9 11 Noroeste 28 Noroeste 0 -- -- 24
2019-04-04 15:00:00 16.5 12 Noroeste 26 Noroeste 0 -- -- 28
2019-04-04 14:00:00 15.4 12 Noroeste 29 Norte 0 -- -- 32
2019-04-04 13:00:00 14.8 14 Noroeste 31 Noroeste 0 -- -- 35
2019-04-04 12:00:00 14.1 15 Noroeste 26 Noroeste 0 -- -- 41
2019-04-04 11:00:00 12.3 12 Noroeste 23 Noroeste 0 -- -- 54
2019-04-04 10:00:00 11.3 8 Noroeste 18 Norte 0 -- -- 65
2019-04-04 09:00:00 10.2 0 Calma -- -- 0 -- -- 79
2019-04-04 08:00:00 9.4 0 Calma 6 Oeste 0 -- -- 78
2019-04-04 07:00:00 9.9 0 Calma 3 Noroeste 0 -- -- 77
2019-04-04 06:00:00 10.2 0 Calma 9 Norte 0 -- -- 78
2019-04-04 05:00:00 10.2 0 Calma 14 Norte 0 -- -- 82
2019-04-04 04:00:00 10.4 5 Nordeste 26 Norte 0 -- -- 84
2019-04-04 03:00:00 10.6 12 Norte 23 Norte 0.1 -- -- 86
2019-04-04 02:00:00 11 9 Nordeste 27 Norte 0.6 -- -- 83
2019-04-04 01:00:00 11.8 15 Norte 31 Norte 0 -- -- 78
2019-04-04 00:00:00 13.2 8 Norte 17 Norte 0 -- -- 82
2019-04-03 23:00:00 13.7 0 Calma 15 Norte 0 -- -- 82
2019-04-03 22:00:00 14.3 4 Sur 13 Sudoeste 0 -- -- 81
2019-04-03 21:00:00 14.9 8 Sudoeste 17 Sudoeste 0 -- -- 78
2019-04-03 20:00:00 15.5 10 Sudoeste 18 Sur 0 -- -- 72
2019-04-03 19:00:00 17.3 8 Sur 20 Sudoeste 0 -- -- 64
2019-04-03 18:00:00 18.1 10 Sudoeste 26 Sudoeste 0 -- -- 61
2019-04-03 17:00:00 19.6 15 Sudoeste 29 Sur 0 -- -- 57
2019-04-03 16:00:00 19.6 16 Sudoeste 37 Sur 0 -- -- 59
2019-04-03 15:00:00 19.1 13 Sur 31 Sudoeste 0 -- -- 59
2019-04-03 14:00:00 19.3 14 Sudoeste 28 Sudoeste 0 -- -- 60
2019-04-03 13:00:00 18.7 12 Sur 25 Sudoeste 0 -- -- 61
2019-04-03 12:00:00 17.7 9 Sur 26 Sudoeste 0 -- -- 65
2019-04-03 11:00:00 16.5 13 Sur 24 Sudoeste 0 -- -- 69
2019-04-03 10:00:00 14.5 9 Sudoeste 21 Sudoeste 0 -- -- 84
2019-04-03 09:00:00 13.9 8 Sudoeste 16 Sudoeste 0 -- -- 88
2019-04-03 08:00:00 13.7 5 Sudoeste 13 Sudoeste 0 -- -- 89
2019-04-03 07:00:00 13.6 0 Calma -- -- 0 -- -- 89
2019-04-03 06:00:00 13.2 0 Calma -- -- 0 -- -- 89
2019-04-03 05:00:00 12.9 0 Calma -- -- 0 -- -- 88
2019-04-03 04:00:00 13.3 0 Calma -- -- 0 -- -- 87
2019-04-03 03:00:00 13.7 0 Calma -- -- 0 -- -- 87
2019-04-03 02:00:00 13.8 0 Calma 6 Sudoeste 0 -- -- 85
2019-04-03 01:00:00 14.1 2 Sudoeste 10 Sudoeste 0 -- -- 85
2019-04-03 00:00:00 14.5 5 Sudoeste 14 Sudoeste 0 -- -- 85
2019-04-02 23:00:00 13.8 3 Sudoeste 8 Sudoeste 0 -- -- 83
2019-04-02 22:00:00 12.9 4 Sudoeste 7 Sudoeste 0 -- -- 78
2019-04-02 21:00:00 14.1 3 Oeste 12 Oeste 0 -- -- 74
2019-04-02 20:00:00 15.9 7 Oeste 18 Oeste 0 -- -- 67
2019-04-02 19:00:00 17.4 11 Sudoeste 22 Oeste 0 -- -- 59
2019-04-02 18:00:00 19.1 11 Sudoeste 25 Oeste 0 -- -- 50
2019-04-02 17:00:00 19.5 13 Oeste 27 Sudoeste 0 -- -- 48
2019-04-02 16:00:00 20.1 13 Oeste 27 Oeste 0 -- -- 49
2019-04-02 15:00:00 20.1 12 Oeste 27 Sudoeste 0 -- -- 46
2019-04-02 14:00:00 19.4 11 Sudoeste 25 Oeste 0 -- -- 47
2019-04-02 13:00:00 18.8 10 Sudoeste 25 Sudoeste 0 -- -- 50
2019-04-02 12:00:00 17.3 13 Sudoeste 24 Sudoeste 0 -- -- 60
2019-04-02 11:00:00 16.3 5 Sudoeste 15 Sudoeste 0 -- -- 70
2019-04-02 10:00:00 15.4 7 Sudoeste 12 Sudoeste 0 -- -- 78
2019-04-02 09:00:00 12.6 2 Sudoeste 6 Sudoeste 0 -- -- 87
2019-04-02 08:00:00 8 0 Calma 7 Noroeste 0 -- -- 86
2019-04-02 07:00:00 7.6 0 Calma -- -- 0 -- -- 85
2019-04-02 06:00:00 7.7 0 Calma -- -- 0 -- -- 83
2019-04-02 05:00:00 8.3 0 Calma -- -- 0 -- -- 83
2019-04-02 04:00:00 9.2 0 Calma -- -- 0 -- -- 83
2019-04-02 03:00:00 9.8 0 Calma -- -- 0 -- -- 82
2019-04-02 02:00:00 10.3 0 Calma -- -- 0 -- -- 81
2019-04-02 01:00:00 11.3 0 Calma 3 Norte 0 -- -- 78
2019-04-02 00:00:00 12.2 0 Calma 7 Noroeste 0 -- -- 76
2019-04-01 23:00:00 12.9 0 Calma 8 Noroeste 0 -- -- 73
2019-04-01 22:00:00 13.9 4 Noroeste 6 Noroeste 0 -- -- 71
2019-04-01 21:00:00 15.2 3 Oeste 8 Sudoeste 0 -- -- 68
2019-04-01 20:00:00 15.9 5 Sudoeste 12 Sudeste 0 -- -- 64
2019-04-01 19:00:00 16.7 8 Sudoeste 21 Oeste 0 -- -- 59
2019-04-01 18:00:00 18.3 12 Sudoeste 21 Sudoeste 0 -- -- 53
2019-04-01 17:00:00 18.4 0 Calma 13 Norte 0 -- -- 46
2019-04-01 16:00:00 18.4 8 Norte 18 Norte 0 -- -- 50
2019-04-01 15:00:00 18.6 8 Norte 18 Norte 0 -- -- 51
2019-04-01 14:00:00 18 4 Este 17 Norte 0 -- -- 52
2019-04-01 13:00:00 16.6 5 Nordeste 15 Norte 0 -- -- 64
2019-04-01 12:00:00 14.4 7 Norte 13 Norte 0 -- -- 78
2019-04-01 11:00:00 13.4 3 Nordeste 10 Norte 0 -- -- 84
2019-04-01 10:00:00 13.2 5 Norte 14 Norte 0 -- -- 88
2019-04-01 09:00:00 12.3 9 Norte 13 Norte 0 -- -- 89
2019-04-01 08:00:00 12.4 5 Norte 8 Norte 0 -- -- 90
2019-04-01 07:00:00 12.5 0 Calma 7 Norte 0 -- -- 90
2019-04-01 06:00:00 12.3 0 Calma 7 Nordeste 0 -- -- 90
2019-04-01 05:00:00 12.3 2 Nordeste 8 Norte 0 -- -- 91
2019-04-01 04:00:00 12.3 6 Norte 10 Norte 0 -- -- 91
2019-04-01 03:00:00 12.4 4 Norte 10 Este 0 -- -- 91
2019-04-01 02:00:00 12.6 3 Nordeste 12 Norte 0 -- -- 91
2019-04-01 01:00:00 12.9 2 Nordeste 13 Norte 0 -- -- 91
2019-04-01 00:00:00 13 3 Nordeste 12 Nordeste 0.4 -- -- 90
2019-03-31 23:00:00 13.1 2 Sudeste 11 Nordeste 0.1 -- -- 90
2019-03-31 22:00:00 13.3 0 Calma 15 Este 0.3 -- -- 90
2019-03-31 21:00:00 13.7 4 Nordeste 15 Norte 0.2 -- -- 89
2019-03-31 20:00:00 13.8 5 Este 20 Este 0 -- -- 87
2019-03-31 19:00:00 14.7 4 Este 15 Este 0 -- -- 84
2019-03-31 18:00:00 15.1 10 Este 17 Sudeste 0 -- -- 79
2019-03-31 17:00:00 15.5 10 Este 25 Este 0 -- -- 77
2019-03-31 16:00:00 16.1 13 Sudeste 24 Sudeste 0 -- -- 74
2019-03-31 15:00:00 15.9 15 Sudeste 27 Sudeste 0 -- -- 72
2019-03-31 14:00:00 16.7 14 Sudeste 29 Este 0 -- -- 70
2019-03-31 13:00:00 16.8 14 Este 26 Este 0 -- -- 68
2019-03-31 12:00:00 16 14 Sudeste 23 Este 0 -- -- 69
2019-03-31 11:00:00 15.9 8 Este 21 Este 0 -- -- 73
2019-03-31 10:00:00 14.4 4 Este 16 Nordeste 0 -- -- 86
2019-03-31 09:00:00 13.2 2 Nordeste 12 Norte 0 -- -- 91
2019-03-31 08:00:00 11.8 6 Norte 10 Norte 0 -- -- 91
2019-03-31 07:00:00 11.6 5 Norte 8 Norte 0 -- -- 91
2019-03-31 06:00:00 10.9 6 Norte 9 Norte 0 -- -- 90
2019-03-31 05:00:00 11.2 6 Norte 8 Norte 0 -- -- 89
2019-03-31 03:00:00 11.5 5 Norte 8 Norte 0 -- -- 86
2019-03-31 01:00:00 12.5 4 Norte 8 Norte 0 -- -- 86
2019-03-31 00:00:00 12.2 4 Norte 8 Norte 0 -- -- 84
2019-03-30 23:00:00 12.2 6 Norte 8 Norte 0 -- -- 83
2019-03-30 22:00:00 13 6 Norte 8 Norte 0 -- -- 82
2019-03-30 21:00:00 13.4 2 Nordeste 11 Nordeste 0 -- -- 81
2019-03-30 20:00:00 13.8 4 Este 16 Este 0 -- -- 78
2019-03-30 19:00:00 14.3 8 Este 18 Nordeste 0 -- -- 74
2019-03-30 18:00:00 15.2 7 Este 21 Este 0 -- -- 67
2019-03-30 17:00:00 16.6 9 Este 21 Sudeste 0 -- -- 61
2019-03-30 16:00:00 16.8 11 Este 22 Sudeste 0 -- -- 62
2019-03-30 15:00:00 16.5 7 Este 22 Sudeste 0 -- -- 60
2019-03-30 14:00:00 17.6 14 Sudeste 24 Este 0 -- -- 55
2019-03-30 13:00:00 17.5 9 Este 22 Este 0 -- -- 54
2019-03-30 12:00:00 17.6 8 Este 21 Sudeste 0 -- -- 53
2019-03-30 11:00:00 16.7 6 Este 17 Este 0 -- -- 54
2019-03-30 10:00:00 15.6 6 Este 16 Este 0 -- -- 61
2019-03-30 09:00:00 14.1 5 Este 14 Este 0 -- -- 66
2019-03-30 08:00:00 11.1 3 Norte 6 Norte 0 -- -- 80
2019-03-30 07:00:00 8.4 3 Norte 8 Noroeste 0 -- -- 83
2019-03-30 06:00:00 9 5 Norte 10 Noroeste 0 -- -- 83
2019-03-30 05:00:00 9.2 6 Norte 10 Noroeste 0 -- -- 83
2019-03-30 04:00:00 9.8 5 Norte 9 Noroeste 0 -- -- 83
2019-03-30 03:00:00 9.4 5 Norte 12 Norte 0 -- -- 83
2019-03-30 02:00:00 9.4 0 Calma 8 Noroeste 0 -- -- 83
2019-03-30 01:00:00 8.9 5 Norte 9 Noroeste 0 -- -- 82
2019-03-30 00:00:00 9.7 0 Calma -- -- 0 -- -- 80
2019-03-29 23:00:00 9.6 0 Calma -- -- 0 -- -- 79
2019-03-29 22:00:00 9.2 0 Calma 4 Norte 0 -- -- 76
2019-03-29 21:00:00 10.6 0 Calma 6 Este 0 -- -- 71
2019-03-29 20:00:00 12.1 3 Nordeste 9 Nordeste 0 -- -- 66
2019-03-29 19:00:00 13.5 3 Nordeste 17 Norte 0 -- -- 56
2019-03-29 18:00:00 15.8 6 Nordeste 19 Nordeste 0 -- -- 50
2019-03-29 17:00:00 16 3 Nordeste 17 Nordeste 0 -- -- 49
2019-03-29 16:00:00 16.7 4 Nordeste 19 Norte 0 -- -- 46
2019-03-29 15:00:00 17.8 7 Nordeste 20 Norte 0 -- -- 45
2019-03-29 14:00:00 18.6 5 Este 22 Sudeste 0 -- -- 41
2019-03-29 13:00:00 17.4 10 Este 25 Este 0 -- -- 44
2019-03-29 12:00:00 16.9 14 Sudeste 24 Sudeste 0 -- -- 44
2019-03-29 11:00:00 16.1 12 Sudeste 23 Este 0 -- -- 45
2019-03-29 10:00:00 15.3 6 Este 19 Este 0 -- -- 60
2019-03-29 09:00:00 12.4 3 Norte 16 Sudeste 0 -- -- 77
2019-03-29 08:00:00 9.7 5 Norte 8 Norte 0 -- -- 85
2019-03-29 07:00:00 5.7 3 Noroeste 11 Noroeste 0 -- -- 85
2019-03-29 06:00:00 6.2 9 Noroeste 12 Noroeste 0 -- -- 84
2019-03-29 05:00:00 5.8 5 Noroeste 11 Noroeste 0 -- -- 82
2019-03-29 04:00:00 6.7 6 Noroeste 10 Norte 0 -- -- 81
2019-03-29 03:00:00 6.4 6 Norte 12 Noroeste 0 -- -- 77
2019-03-29 02:00:00 5.4 2 Norte 5 Noroeste 0 -- -- 81
2019-03-29 01:00:00 6 0 Calma 10 Noroeste 0 -- -- 78
2019-03-29 00:00:00 8.3 6 Noroeste 11 Noroeste 0 -- -- 76
2019-03-28 23:00:00 8.7 7 Norte 12 Noroeste 0 -- -- 72
2019-03-28 22:00:00 9.6 7 Noroeste 12 Noroeste 0 -- -- 68
2019-03-28 21:00:00 10.4 3 Norte 8 Noroeste 0 -- -- 63
2019-03-28 20:00:00 12.1 6 Noroeste 10 Noroeste 0 -- -- 59
2019-03-28 19:00:00 13.5 4 Nordeste 15 Norte 0 -- -- 49
2019-03-28 18:00:00 16.2 8 Norte 22 Norte 0 -- -- 40
2019-03-28 17:00:00 17.3 6 Nordeste 26 Norte 0 -- -- 37
2019-03-28 16:00:00 18.4 10 Norte 25 Norte 0 -- -- 36
2019-03-28 15:00:00 19.1 7 Nordeste 33 Norte 0 -- -- 35
2019-03-28 14:00:00 19 12 Norte 30 Norte 0 -- -- 33
2019-03-28 13:00:00 19 11 Nordeste 28 Norte 0 -- -- 35
2019-03-28 12:00:00 18.6 10 Nordeste 24 Nordeste 0 -- -- 40
2019-03-28 11:00:00 17.1 8 Nordeste 23 Nordeste 0 -- -- 45
2019-03-28 10:00:00 15.3 6 Este 22 Norte 0 -- -- 52
2019-03-28 09:00:00 13.9 5 Nordeste 21 Norte 0 -- -- 67
2019-03-28 08:00:00 10.7 2 Nordeste 8 Norte 0 -- -- 83
2019-03-28 07:00:00 7.3 6 Norte 10 Norte 0 -- -- 84
2019-03-28 06:00:00 7.7 5 Norte 11 Norte 0 -- -- 81
2019-03-28 05:00:00 6.7 0 Calma 8 Norte 0 -- -- 78
2019-03-28 04:00:00 7.7 9 Norte 12 Norte 0 -- -- 78
2019-03-28 03:00:00 7.2 0 Calma 8 Norte 0 -- -- 79
2019-03-28 02:00:00 6.5 3 Noroeste 10 Noroeste 0 -- -- 75
2019-03-28 01:00:00 6.4 6 Norte 9 Norte 0 -- -- 76
2019-03-28 00:00:00 7.7 7 Norte 14 Norte 0 -- -- 75
2019-03-27 23:00:00 7.8 8 Norte 10 Norte 0 -- -- 75
2019-03-27 22:00:00 7.9 5 Norte 9 Nordeste 0 -- -- 72
2019-03-27 21:00:00 9.3 6 Norte 12 Norte 0 -- -- 70
2019-03-27 20:00:00 10.7 6 Norte 17 Nordeste 0 -- -- 66
2019-03-27 19:00:00 12.1 4 Nordeste 17 Nordeste 0 -- -- 56
2019-03-27 18:00:00 14.4 4 Nordeste 26 Norte 0 -- -- 47
2019-03-27 17:00:00 15.8 10 Nordeste 33 Norte 0 -- -- 44
2019-03-27 16:00:00 16.6 6 Nordeste 31 Norte 0 -- -- 41
2019-03-27 15:00:00 16.6 7 Nordeste 32 Norte 0 -- -- 42
2019-03-27 14:00:00 16.7 6 Nordeste 33 Norte 0 -- -- 43
2019-03-27 13:00:00 16.8 9 Nordeste 31 Norte 0 -- -- 46
2019-03-27 12:00:00 17.2 12 Nordeste 31 Norte 0 -- -- 47
2019-03-27 11:00:00 16.5 8 Nordeste 31 Norte 0 -- -- 51
2019-03-27 10:00:00 15.7 14 Norte 30 Norte 0 -- -- 56
2019-03-27 09:00:00 13.4 17 Norte 28 Norte 0 -- -- 66
2019-03-27 08:00:00 11.5 14 Norte 23 Norte 0 -- -- 69
2019-03-27 07:00:00 9.4 10 Norte 23 Norte 0 -- -- 69
2019-03-27 06:00:00 9.2 11 Norte 23 Norte 0 -- -- 71
2019-03-27 05:00:00 9.4 16 Norte 23 Norte 0 -- -- 71
2019-03-27 04:00:00 7.1 4 Nordeste 13 Nordeste 0 -- -- 79
2019-03-27 03:00:00 4.5 2 Norte 5 Norte 0 -- -- 76
2019-03-27 02:00:00 6 3 Noroeste 7 Norte 0 -- -- 72
2019-03-27 01:00:00 6.7 7 Noroeste 13 Noroeste 0 -- -- 71
2019-03-27 00:00:00 6.3 4 Norte 12 Noroeste 0 -- -- 70
2019-03-26 23:00:00 6.9 7 Noroeste 12 Noroeste 0 -- -- 70
2019-03-26 22:00:00 6.6 2 Noroeste 5 Noroeste 0 -- -- 68
2019-03-26 21:00:00 7.5 0 Calma 4 Norte 0 -- -- 64
2019-03-26 20:00:00 10 0 Calma 10 Nordeste 0 -- -- 57
2019-03-26 19:00:00 10.9 4 Nordeste 21 Nordeste 0 -- -- 54
2019-03-26 18:00:00 12.5 7 Nordeste 31 Nordeste 0 -- -- 54
2019-03-26 17:00:00 13.3 7 Nordeste 40 Norte 0 -- -- 47
2019-03-26 16:00:00 14.2 13 Nordeste 42 Norte 0 -- -- 42
2019-03-26 15:00:00 14.6 13 Nordeste 44 Norte 0 -- -- 40
2019-03-26 14:00:00 15.5 10 Nordeste 40 Norte 0 -- -- 37
2019-03-26 13:00:00 15 13 Nordeste 47 Nordeste 0 -- -- 36
2019-03-26 12:00:00 15.4 10 Nordeste 36 Norte 0 -- -- 33
2019-03-26 11:00:00 15.2 10 Nordeste 39 Norte 0 -- -- 33
2019-03-26 10:00:00 14.4 12 Nordeste 40 Norte 0 -- -- 31
2019-03-26 09:00:00 13.8 14 Norte 36 Norte 0 -- -- 37
2019-03-26 08:00:00 10.7 5 Nordeste 17 Norte 0 -- -- 71
2019-03-26 07:00:00 8.2 4 Norte 12 Norte 0 -- -- 87
2019-03-26 06:00:00 9 7 Norte 10 Norte 0 -- -- 89
2019-03-26 05:00:00 7.2 4 Norte 10 Noroeste 0 -- -- 88
2019-03-26 04:00:00 8.2 8 Norte 12 Noroeste 0 -- -- 87
2019-03-26 03:00:00 8.1 0 Calma 7 Noroeste 0 -- -- 85
2019-03-26 02:00:00 8.3 0 Calma 7 Noroeste 0 -- -- 84
2019-03-26 01:00:00 8 3 Norte 8 Norte 0 -- -- 82
2019-03-26 00:00:00 8.2 0 Calma -- -- 0 -- -- 78
2019-03-25 23:00:00 9.6 2 Norte 6 Norte 0 -- -- 76
2019-03-25 22:00:00 10.8 0 Calma 5 Norte 0 -- -- 71
2019-03-25 21:00:00 12.2 2 Sudoeste 7 Sudoeste 0 -- -- 68
2019-03-25 20:00:00 13.4 3 Sur 7 Este 0 -- -- 64
2019-03-25 19:00:00 15.2 6 Este 15 Este 0 -- -- 54
2019-03-25 18:00:00 17.7 9 Sudeste 16 Este 0 -- -- 40
2019-03-25 17:00:00 19.4 9 Sudeste 17 Sudeste 0 -- -- 36
2019-03-25 16:00:00 20.6 9 Sudeste 20 Norte 0 -- -- 34
2019-03-25 15:00:00 21.2 3 Nordeste 22 Este 0 -- -- 33
2019-03-25 14:00:00 20.5 9 Este 25 Este 0 -- -- 34
2019-03-25 13:00:00 20.4 10 Este 32 Este 0 -- -- 35
2019-03-25 12:00:00 20.9 9 Este 22 Este 0 -- -- 35
2019-03-25 11:00:00 21.1 5 Nordeste 20 Nordeste 0 -- -- 36
2019-03-25 10:00:00 18.9 7 Este 20 Nordeste 0 -- -- 37
2019-03-25 09:00:00 14.6 4 Noroeste 9 Noroeste 0 -- -- 68
2019-03-25 08:00:00 10.2 8 Norte 11 Noroeste 0 -- -- 81
2019-03-25 07:00:00 6 0 Calma 4 Norte 0 -- -- 84
2019-03-25 06:00:00 6.5 0 Calma 8 Norte 0 -- -- 83
2019-03-25 05:00:00 6.9 0 Calma 6 Noroeste 0 -- -- 83
2019-03-25 04:00:00 6.3 0 Calma 3 Norte 0 -- -- 81
2019-03-25 03:00:00 7 0 Calma 5 Norte 0 -- -- 80
2019-03-25 02:00:00 8.2 0 Calma 6 Norte 0 -- -- 80
2019-03-25 01:00:00 9.5 4 Norte 8 Noroeste 0 -- -- 80
2019-03-25 00:00:00 10.1 5 Noroeste 13 Noroeste 0 -- -- 78
2019-03-24 23:00:00 10 0 Calma 8 Noroeste 0 -- -- 75
2019-03-24 22:00:00 10.8 3 Norte 5 Norte 0 -- -- 70
2019-03-24 21:00:00 11.9 0 Calma 7 Sudoeste 0 -- -- 64
2019-03-24 20:00:00 13.9 0 Calma 5 Oeste 0 -- -- 55
2019-03-24 19:00:00 16.9 3 Oeste 11 Noroeste 0 -- -- 43
2019-03-24 18:00:00 19.5 6 Oeste 19 Sudoeste 0 -- -- 37
2019-03-24 17:00:00 20.7 10 Oeste 23 Sudoeste 0 -- -- 35
2019-03-24 16:00:00 22 11 Sudoeste 26 Sudoeste 0 -- -- 31
2019-03-24 15:00:00 21.7 12 Sur 22 Sur 0 -- -- 35
2019-03-24 14:00:00 22.4 12 Sur 23 Sudoeste 0 -- -- 35
2019-03-24 13:00:00 21.2 10 Sur 19 Sur 0 -- -- 37
2019-03-24 12:00:00 21.4 8 Sudoeste 18 Sudoeste 0 -- -- 40
2019-03-24 11:00:00 20.6 8 Sur 15 Sur 0 -- -- 45
2019-03-24 10:00:00 18.6 6 Sur 11 Sudeste 0 -- -- 45
2019-03-24 09:00:00 14.2 0 Calma 8 Noroeste 0 -- -- 68
2019-03-24 08:00:00 9.3 0 Calma -- -- 0 -- -- 85
2019-03-24 07:00:00 6.3 3 Norte 6 Noroeste 0 -- -- 85
2019-03-24 06:00:00 6 0 Calma -- -- 0 -- -- 83
2019-03-24 05:00:00 6.4 0 Calma 7 Noroeste 0 -- -- 81
2019-03-24 04:00:00 6.6 0 Calma 8 Norte 0 -- -- 80
2019-03-24 03:00:00 7.6 6 Norte 8 Norte 0 -- -- 78
2019-03-24 02:00:00 8.4 0 Calma 5 Nordeste 0 -- -- 75
2019-03-24 01:00:00 8.8 0 Calma -- -- 0 -- -- 73
2019-03-24 00:00:00 8.9 0 Calma -- -- 0 -- -- 72
2019-03-23 23:00:00 9.9 0 Calma 8 Noroeste 0 -- -- 67
2019-03-23 22:00:00 10.4 4 Noroeste 8 Noroeste 0 -- -- 63
2019-03-23 21:00:00 11.2 0 Calma 5 Noroeste 0 -- -- 58
2019-03-23 20:00:00 13.4 2 Oeste 6 Sudeste 0 -- -- 55
2019-03-23 19:00:00 16.7 4 Sur 12 Sudoeste 0 -- -- 48
2019-03-23 18:00:00 19.5 8 Sudoeste 14 Sudoeste 0 -- -- 37
2019-03-23 17:00:00 20.6 3 Sur 13 Norte 0 -- -- 34
2019-03-23 16:00:00 22.1 4 Nordeste 14 Norte 0 -- -- 34
2019-03-23 15:00:00 21.5 9 Norte 17 Norte 0 -- -- 37
2019-03-23 14:00:00 21.3 5 Norte 20 Norte 0 -- -- 40
2019-03-23 13:00:00 20.9 4 Este 25 Noroeste 0 -- -- 42
2019-03-23 12:00:00 19.7 5 Este 16 Sudeste 0 -- -- 45
2019-03-23 11:00:00 18.7 9 Norte 18 Norte 0 -- -- 55
2019-03-23 10:00:00 17 4 Nordeste 14 Norte 0 -- -- 67
2019-03-23 09:00:00 14 10 Norte 18 Norte 0 -- -- 86
2019-03-23 08:00:00 11.4 5 Noroeste 12 Norte 0 -- -- 92
2019-03-23 07:00:00 11.6 10 Norte 13 Norte 0 -- -- 92
2019-03-23 06:00:00 11.1 8 Norte 13 Norte 0 -- -- 92
2019-03-23 05:00:00 11.7 6 Norte 15 Norte 0 -- -- 92
2019-03-23 04:00:00 11.6 9 Norte 14 Norte 0 -- -- 92
2019-03-23 03:00:00 11.5 6 Noroeste 17 Norte 0 -- -- 92
2019-03-23 02:00:00 11.5 7 Norte 12 Norte 0 -- -- 91
2019-03-23 01:00:00 11.2 4 Noroeste 14 Noroeste 0 -- -- 90
2019-03-23 00:00:00 11.4 7 Noroeste 12 Noroeste 0 -- -- 90
2019-03-22 23:00:00 11.5 6 Norte 12 Noroeste 0 -- -- 88
2019-03-22 22:00:00 11.7 5 Noroeste 8 Noroeste 0 -- -- 87
2019-03-22 21:00:00 12.3 5 Norte 12 Norte 0 -- -- 85
2019-03-22 20:00:00 13.3 3 Nordeste 15 Norte 0 -- -- 81
2019-03-22 19:00:00 13.8 9 Norte 22 Nordeste 0 -- -- 77
2019-03-22 18:00:00 14.3 8 Norte 25 Norte 0 -- -- 73
2019-03-22 17:00:00 15.2 8 Nordeste 27 Norte 0 -- -- 70
2019-03-22 16:00:00 15.9 10 Nordeste 31 Norte 0 -- -- 63
2019-03-22 15:00:00 18.2 10 Nordeste 30 Norte 0 -- -- 56
2019-03-22 14:00:00 18.6 12 Norte 33 Norte 0 -- -- 54
2019-03-22 13:00:00 18 15 Nordeste 32 Norte 0 -- -- 59
2019-03-22 12:00:00 17.7 11 Nordeste 32 Norte 0 -- -- 61
2019-03-22 11:00:00 16.6 16 Norte 34 Norte 0 -- -- 66
2019-03-22 10:00:00 16 10 Nordeste 27 Norte 0 -- -- 70
2019-03-22 09:00:00 14.1 10 Nordeste 26 Norte 0 -- -- 79
2019-03-22 08:00:00 12.4 8 Nordeste 17 Nordeste 0 -- -- 86
2019-03-22 07:00:00 11.4 5 Nordeste 18 Norte 0 -- -- 85
2019-03-22 06:00:00 11.3 12 Norte 20 Nordeste 0 -- -- 85
2019-03-22 05:00:00 10.5 8 Norte 19 Norte 0 -- -- 84
2019-03-22 04:00:00 10.6 12 Norte 19 Norte 0 -- -- 83
2019-03-22 03:00:00 10.4 7 Nordeste 18 Norte 0 -- -- 81
2019-03-22 02:00:00 10.6 8 Nordeste 20 Norte 0 -- -- 80
2019-03-22 01:00:00 10.4 6 Nordeste 22 Norte 0 -- -- 77
2019-03-22 00:00:00 10.8 6 Nordeste 20 Norte 0 -- -- 76
2019-03-21 23:00:00 10.7 5 Nordeste 20 Nordeste 0 -- -- 74
2019-03-21 22:00:00 11.1 5 Nordeste 19 Norte 0 -- -- 73
2019-03-21 21:00:00 11.1 5 Nordeste 19 Norte 0 -- -- 71
2019-03-21 20:00:00 11.3 6 Nordeste 24 Norte 0 -- -- 68
2019-03-21 19:00:00 11.2 6 Nordeste 23 Nordeste 0 -- -- 64
2019-03-21 18:00:00 12.3 6 Nordeste 28 Este 0 -- -- 61
2019-03-21 17:00:00 13.4 5 Nordeste 25 Nordeste 0 -- -- 59
2019-03-21 16:00:00 14.3 6 Nordeste 31 Nordeste 0 -- -- 55
2019-03-21 15:00:00 14.9 5 Nordeste 37 Norte 0 -- -- 50
2019-03-21 14:00:00 15.2 14 Nordeste 33 Norte 0 -- -- 54
2019-03-21 13:00:00 15 9 Nordeste 30 Nordeste 0 -- -- 54
2019-03-21 12:00:00 15.1 6 Nordeste 32 Nordeste 0 -- -- 53
2019-03-21 11:00:00 13.9 7 Nordeste 36 Norte 0 -- -- 59
2019-03-21 10:00:00 12.8 7 Nordeste 32 Este 0 -- -- 59
2019-03-21 09:00:00 11.2 5 Nordeste 23 Norte 0 -- -- 66
2019-03-21 08:00:00 10.9 7 Nordeste 21 Norte 0 -- -- 71
2019-03-21 07:00:00 9.2 8 Norte 19 Nordeste 0 -- -- 76
2019-03-21 06:00:00 8.6 6 Nordeste 18 Nordeste 0 -- -- 75
2019-03-21 05:00:00 7.6 7 Norte 16 Norte 0 -- -- 73
2019-03-21 04:00:00 8.2 8 Norte 15 Norte 0 -- -- 75
2019-03-21 03:00:00 8.3 8 Norte 16 Norte 0 -- -- 77
2019-03-21 02:00:00 8.4 6 Norte 14 Norte 0 -- -- 77
2019-03-21 01:00:00 8.9 5 Nordeste 14 Norte 0 -- -- 76
2019-03-21 00:00:00 9.1 6 Nordeste 16 Norte 0 -- -- 77